createdAt,value
2023-05-23T00:02:19.166Z,5.40
2023-05-23T00:04:46.535Z,6.60
2023-05-23T00:07:13.905Z,7.10
2023-05-23T00:09:41.447Z,5.00
2023-05-23T00:12:08.827Z,7.20
2023-05-23T00:14:36.228Z,5.40
2023-05-23T00:17:03.875Z,6.80
2023-05-23T00:19:31.818Z,5.00
2023-05-23T00:21:59.453Z,4.40
2023-05-23T00:24:27.374Z,4.70
2023-05-23T00:26:54.676Z,5.40
2023-05-23T00:29:22.208Z,5.00
2023-05-23T00:31:50.514Z,4.50
2023-05-23T00:34:18.275Z,6.10
2023-05-23T00:36:48.107Z,6.30
2023-05-23T00:39:20.198Z,4.40
2023-05-23T00:41:51.463Z,4.90
2023-05-23T00:44:21.374Z,4.60
2023-05-23T00:46:54.191Z,4.80
2023-05-23T00:49:22.357Z,4.50
2023-05-23T00:51:50.882Z,5.60
2023-05-23T00:54:25.642Z,5.40
2023-05-23T00:56:53.472Z,6.90
2023-05-23T00:59:21.639Z,6.00
2023-05-23T01:01:49.734Z,4.50
2023-05-23T01:04:20.194Z,4.10
2023-05-23T01:06:49.381Z,4.30
2023-05-23T01:09:17.025Z,4.30
2023-05-23T01:12:06.683Z,5.60
2023-05-23T01:15:03.472Z,5.50
2023-05-23T01:17:45.198Z,4.50
2023-05-23T01:20:23.238Z,5.40
2023-05-23T01:23:00.553Z,4.00
2023-05-23T01:25:50.362Z,5.40
2023-05-23T01:28:20.109Z,4.50
2023-05-23T01:30:48.797Z,4.20
2023-05-23T01:33:17.543Z,5.30
2023-05-23T01:35:44.921Z,4.50
2023-05-23T01:38:12.213Z,4.60
2023-05-23T01:40:39.694Z,4.10
2023-05-23T01:43:07.073Z,4.70
2023-05-23T01:45:34.503Z,4.90
2023-05-23T01:48:04.025Z,4.90
2023-05-23T01:50:32.849Z,5.00
2023-05-23T01:53:00.622Z,4.40
2023-05-23T01:55:29.009Z,4.70
2023-05-23T01:57:57.173Z,4.90
2023-05-23T02:00:24.463Z,7.20
2023-05-23T02:02:53.104Z,4.50
2023-05-23T02:05:20.774Z,4.40
2023-05-23T02:07:48.104Z,5.00
2023-05-23T02:10:17.968Z,5.30
2023-05-23T02:12:45.617Z,3.90
2023-05-23T02:15:12.899Z,3.40
2023-05-23T02:17:42.015Z,5.00
2023-05-23T02:20:10.341Z,5.60
2023-05-23T02:22:38.824Z,5.10
2023-05-23T02:25:07.189Z,4.60
2023-05-23T02:27:34.604Z,6.30
2023-05-23T02:30:02.114Z,4.00
2023-05-23T02:32:30.680Z,3.90
2023-05-23T02:34:58.362Z,4.60
2023-05-23T02:37:25.716Z,4.80
2023-05-23T02:39:53.776Z,5.00
2023-05-23T02:42:22.509Z,5.30
2023-05-23T02:44:49.895Z,4.30
2023-05-23T02:47:18.630Z,3.70
2023-05-23T02:49:46.015Z,3.70
2023-05-23T02:52:14.224Z,4.50
2023-05-23T02:54:41.971Z,4.00
2023-05-23T02:57:09.413Z,3.80
2023-05-23T02:59:37.419Z,3.70
2023-05-23T03:02:04.983Z,5.70
2023-05-23T03:04:32.463Z,6.30
2023-05-23T03:06:59.943Z,5.20
2023-05-23T03:09:27.484Z,6.00
2023-05-23T03:11:54.904Z,4.70
2023-05-23T03:14:22.369Z,5.10
2023-05-23T03:16:49.862Z,4.20
2023-05-23T03:19:17.351Z,5.20
2023-05-23T03:21:45.115Z,6.60
2023-05-23T03:24:12.709Z,5.80
2023-05-23T03:26:40.111Z,9.20
2023-05-23T03:29:07.649Z,5.70
2023-05-23T03:31:35.115Z,7.70
2023-05-23T03:34:05.759Z,6.20
2023-05-23T03:36:39.476Z,7.60
2023-05-23T03:39:07.848Z,9.30
2023-05-23T03:41:35.480Z,8.30
2023-05-23T03:44:03.768Z,7.10
2023-05-23T03:46:31.923Z,7.60
2023-05-23T03:48:59.616Z,7.80
2023-05-23T03:51:28.255Z,8.10
2023-05-23T03:53:56.178Z,7.10
2023-05-23T03:56:24.098Z,8.20
2023-05-23T03:58:51.869Z,5.00
2023-05-23T04:01:19.316Z,10.50
2023-05-23T04:03:48.314Z,6.30
2023-05-23T04:06:17.478Z,5.50
2023-05-23T04:08:46.765Z,8.00
2023-05-23T04:11:14.349Z,9.70
2023-05-23T04:13:43.007Z,8.40
2023-05-23T04:16:11.613Z,5.30
2023-05-23T04:18:39.402Z,7.70
2023-05-23T04:21:08.087Z,9.00
2023-05-23T04:23:39.928Z,5.50
2023-05-23T04:26:10.431Z,7.30
2023-05-23T04:28:44.268Z,9.50
2023-05-23T04:31:12.825Z,6.90
2023-05-23T04:33:40.264Z,7.20
2023-05-23T04:36:11.274Z,10.30
2023-05-23T04:38:42.591Z,8.40
2023-05-23T04:41:13.338Z,7.50
2023-05-23T04:43:59.950Z,7.50
2023-05-23T04:46:53.517Z,8.50
2023-05-23T04:49:25.572Z,9.10
2023-05-23T04:51:53.643Z,7.80
2023-05-23T04:54:27.754Z,5.90
2023-05-23T04:56:57.117Z,7.40
2023-05-23T04:59:27.673Z,7.70
2023-05-23T05:01:55.119Z,7.70
2023-05-23T05:04:23.737Z,9.90
2023-05-23T05:06:52.677Z,7.00
2023-05-23T05:09:22.196Z,8.80
2023-05-23T05:11:50.076Z,8.30
2023-05-23T05:14:17.397Z,8.60
2023-05-23T05:16:46.425Z,8.00
2023-05-23T05:19:14.136Z,8.60
2023-05-23T05:21:41.888Z,8.40
2023-05-23T05:24:12.918Z,6.30
2023-05-23T05:26:42.742Z,5.80
2023-05-23T05:30:10.451Z,6.90
2023-05-23T05:32:47.928Z,7.90
2023-05-23T05:35:15.978Z,7.80
2023-05-23T05:37:45.022Z,8.30
2023-05-23T05:40:13.456Z,11.30
2023-05-23T05:42:43.162Z,7.20
2023-05-23T05:45:11.585Z,8.30
2023-05-23T05:47:40.338Z,10.00
2023-05-23T05:50:09.585Z,14.70
2023-05-23T05:52:39.937Z,7.30
2023-05-23T05:55:08.828Z,6.60
2023-05-23T05:57:38.875Z,7.60
2023-05-23T06:00:13.690Z,8.80
2023-05-23T06:02:48.802Z,6.70
2023-05-23T06:05:19.822Z,7.40
2023-05-23T06:07:48.936Z,7.80
2023-05-23T06:10:16.755Z,8.40
2023-05-23T06:12:46.065Z,9.60
2023-05-23T06:15:14.819Z,11.80
2023-05-23T06:17:42.572Z,8.10
2023-05-23T06:20:10.994Z,9.50
2023-05-23T06:22:40.248Z,6.60
2023-05-23T06:25:08.047Z,7.80
2023-05-23T06:27:35.569Z,6.10
2023-05-23T06:30:07.075Z,7.30
2023-05-23T06:32:34.455Z,9.70
2023-05-23T06:35:03.409Z,6.20
2023-05-23T06:37:40.921Z,7.70
2023-05-23T06:40:10.038Z,7.20
2023-05-23T06:42:37.332Z,4.40
2023-05-23T06:45:23.470Z,5.30
2023-05-23T06:47:51.427Z,4.70
2023-05-23T06:50:20.167Z,6.50
2023-05-23T06:52:47.791Z,4.20
2023-05-23T06:55:18.421Z,4.40
2023-05-23T06:57:47.304Z,5.60
2023-05-23T07:00:15.199Z,5.10
2023-05-23T07:02:51.807Z,5.10
2023-05-23T07:05:20.460Z,8.00
2023-05-23T07:07:49.317Z,7.50
2023-05-23T07:10:17.010Z,9.30
2023-05-23T07:12:44.715Z,6.40
2023-05-23T07:15:12.696Z,5.90
2023-05-23T07:17:46.335Z,5.40
2023-05-23T07:20:13.995Z,7.00
2023-05-23T07:22:41.700Z,5.10
2023-05-23T07:25:09.657Z,7.90
2023-05-23T07:27:39.224Z,9.80
2023-05-23T07:30:09.681Z,6.50
2023-05-23T07:33:30.003Z,17.10
2023-05-23T07:36:01.002Z,6.30
2023-05-23T07:38:28.428Z,7.70
2023-05-23T07:41:09.828Z,8.20
2023-05-23T07:43:39.631Z,6.90
2023-05-23T07:46:07.398Z,6.50
2023-05-23T07:48:34.847Z,5.10
2023-05-23T07:51:04.065Z,7.40
2023-05-23T07:53:31.773Z,6.00
2023-05-23T07:55:59.317Z,9.60
2023-05-23T07:58:29.308Z,6.50
2023-05-23T08:00:58.084Z,8.50
2023-05-23T08:03:57.973Z,8.70
2023-05-23T08:06:31.911Z,6.60
2023-05-23T08:09:01.548Z,8.50
2023-05-23T08:11:30.858Z,11.80
2023-05-23T08:15:09.203Z,7.30
2023-05-23T08:17:41.721Z,6.40
2023-05-23T08:20:10.266Z,7.60
2023-05-23T08:22:37.975Z,9.00
2023-05-23T08:25:06.250Z,6.30
2023-05-23T08:27:39.272Z,5.60
2023-05-23T08:30:17.448Z,6.80
2023-05-23T08:32:44.949Z,4.90
2023-05-23T08:35:12.642Z,5.30
2023-05-23T08:37:43.726Z,5.50
2023-05-23T08:40:15.810Z,11.30
2023-05-23T08:42:51.220Z,7.10
2023-05-23T08:45:19.393Z,4.90
2023-05-23T08:47:47.436Z,7.60
2023-05-23T08:50:18.013Z,5.50
2023-05-23T08:52:56.710Z,4.50
2023-05-23T08:55:28.821Z,4.50
2023-05-23T08:57:59.641Z,9.30
2023-05-23T09:00:34.982Z,6.10
2023-05-23T09:03:02.682Z,6.30
2023-05-23T09:05:50.765Z,4.60
2023-05-23T09:08:19.258Z,5.70
2023-05-23T09:10:50.355Z,4.10
2023-05-23T09:13:20.447Z,5.40
2023-05-23T09:16:00.389Z,4.50
2023-05-23T09:18:43.859Z,5.80
2023-05-23T09:21:13.196Z,6.30
2023-05-23T09:23:46.912Z,10.40
2023-05-23T09:26:14.374Z,5.10
2023-05-23T09:28:42.653Z,4.10
2023-05-23T09:31:11.053Z,7.80
2023-05-23T09:33:48.391Z,6.70
2023-05-23T09:36:17.331Z,4.60
2023-05-23T09:38:46.546Z,6.00
2023-05-23T09:41:14.216Z,6.80
2023-05-23T09:43:52.253Z,3.80
2023-05-23T09:46:20.933Z,4.80
2023-05-23T09:48:49.316Z,5.40
2023-05-23T09:51:16.784Z,5.60
2023-05-23T09:53:44.190Z,7.00
2023-05-23T09:56:11.744Z,5.00
2023-05-23T09:58:40.524Z,6.30
2023-05-23T10:01:10.125Z,4.30
2023-05-23T10:03:42.910Z,4.20
2023-05-23T10:06:13.328Z,4.20
2023-05-23T10:08:44.067Z,7.10
2023-05-23T10:11:14.427Z,4.70
2023-05-23T10:13:45.328Z,3.90
2023-05-23T10:16:22.390Z,8.80
2023-05-23T10:18:56.730Z,5.60
2023-05-23T10:21:25.864Z,3.90
2023-05-23T10:23:53.296Z,5.30
2023-05-23T10:26:20.681Z,6.00
2023-05-23T10:28:48.061Z,7.10
2023-05-23T10:31:15.601Z,4.50
2023-05-23T10:33:44.733Z,5.50
2023-05-23T10:36:17.755Z,5.40
2023-05-23T10:39:06.492Z,3.60
2023-05-23T10:41:41.734Z,3.60
2023-05-23T10:44:15.488Z,4.70
2023-05-23T10:46:59.011Z,5.40
2023-05-23T10:49:43.838Z,5.60
2023-05-23T10:52:13.237Z,3.90
2023-05-23T10:54:50.517Z,4.30
2023-05-23T10:57:19.955Z,4.90
2023-05-23T10:59:47.582Z,3.70
2023-05-23T11:02:16.324Z,4.50
2023-05-23T11:04:44.005Z,4.20
2023-05-23T11:07:31.315Z,3.90
2023-05-23T11:10:14.442Z,6.10
2023-05-23T11:12:42.835Z,3.60
2023-05-23T11:15:24.054Z,5.20
2023-05-23T11:17:57.674Z,7.30
2023-05-23T11:20:27.510Z,6.00
2023-05-23T11:23:07.793Z,7.60
2023-05-23T11:25:45.615Z,5.10
2023-05-23T11:28:13.591Z,5.60
2023-05-23T11:30:41.511Z,4.10
2023-05-23T11:33:13.713Z,6.50
2023-05-23T11:35:46.013Z,6.00
2023-05-23T11:38:14.717Z,4.60
2023-05-23T11:40:44.405Z,8.20
2023-05-23T11:43:14.166Z,6.20
2023-05-23T11:45:42.196Z,5.50
2023-05-23T11:48:13.087Z,4.90
2023-05-23T11:50:53.327Z,6.10
2023-05-23T11:53:22.244Z,5.70
2023-05-23T11:55:55.313Z,5.50
2023-05-23T11:58:22.983Z,6.90
2023-05-23T12:00:51.057Z,4.90
2023-05-23T12:03:19.192Z,3.90
2023-05-23T12:05:46.877Z,4.80
2023-05-23T12:08:14.997Z,4.50
2023-05-23T12:10:53.121Z,4.30
2023-05-23T12:13:21.098Z,5.20
2023-05-23T12:15:49.795Z,6.40
2023-05-23T12:18:20.894Z,4.50
2023-05-23T12:20:52.088Z,5.20
2023-05-23T12:23:21.806Z,6.60
2023-05-23T12:25:53.039Z,4.90
2023-05-23T12:28:21.265Z,4.10
2023-05-23T12:30:49.643Z,4.50
2023-05-23T12:33:18.471Z,5.10
2023-05-23T12:35:46.226Z,3.90
2023-05-23T12:38:17.560Z,5.90
2023-05-23T12:43:12.872Z,4.40
2023-05-23T12:45:40.671Z,6.10
2023-05-23T12:48:08.850Z,6.40
2023-05-23T12:50:36.424Z,4.60
2023-05-23T12:53:03.769Z,4.50
2023-05-23T12:55:31.041Z,7.30
2023-05-23T12:57:58.493Z,6.80
2023-05-23T13:00:26.075Z,7.00
2023-05-23T13:02:53.539Z,6.00
2023-05-23T13:05:22.629Z,3.80
2023-05-23T13:07:50.047Z,5.00
2023-05-23T13:10:17.525Z,4.20
2023-05-23T13:12:44.864Z,6.40
2023-05-23T13:15:12.749Z,3.70
2023-05-23T13:17:41.038Z,5.90
2023-05-23T13:20:09.558Z,7.10
2023-05-23T13:22:36.979Z,6.10
2023-05-23T13:25:04.625Z,4.80
2023-05-23T13:27:31.938Z,5.60
2023-05-23T13:29:59.348Z,8.30
2023-05-23T13:32:26.804Z,5.00
2023-05-23T13:34:54.202Z,6.40
2023-05-23T13:37:21.534Z,7.60
2023-05-23T13:39:49.393Z,5.90
2023-05-23T13:42:16.793Z,7.10
2023-05-23T13:44:44.214Z,4.90
2023-05-23T13:47:13.256Z,5.80
2023-05-23T13:49:41.824Z,8.30
2023-05-23T13:52:09.189Z,4.70
2023-05-23T13:54:36.513Z,6.40
2023-05-23T13:57:04.001Z,5.10
2023-05-23T13:59:31.357Z,7.80
2023-05-23T14:01:58.820Z,5.10
2023-05-23T14:04:26.259Z,8.60
2023-05-23T14:06:53.786Z,5.50
2023-05-23T14:09:23.056Z,4.40
2023-05-23T14:11:52.517Z,5.00
2023-05-23T14:14:19.933Z,5.00
2023-05-23T14:16:47.522Z,5.10
2023-05-23T14:19:15.211Z,6.80
2023-05-23T14:21:44.778Z,5.00
2023-05-23T14:24:12.530Z,4.30
2023-05-23T14:26:39.907Z,7.90
2023-05-23T14:29:07.801Z,6.00
2023-05-23T14:31:35.598Z,4.90
2023-05-23T14:34:03.182Z,5.30
2023-05-23T14:36:31.837Z,5.90
2023-05-23T14:38:59.216Z,5.00
2023-05-23T14:41:28.908Z,6.20
2023-05-23T14:43:56.307Z,6.60
2023-05-23T14:46:23.825Z,6.30
2023-05-23T14:48:51.638Z,6.20
2023-05-23T14:51:30.750Z,6.70
2023-05-23T14:54:06.257Z,6.40
2023-05-23T14:56:33.734Z,4.40
2023-05-23T14:59:01.677Z,5.30
2023-05-23T15:01:29.078Z,6.90
2023-05-23T15:03:56.489Z,6.70
2023-05-23T15:06:23.990Z,8.00
2023-05-23T15:08:52.388Z,8.60
2023-05-23T15:11:19.740Z,7.50
2023-05-23T15:13:47.146Z,5.80
2023-05-23T15:16:16.276Z,5.40
2023-05-23T15:18:43.869Z,5.00
2023-05-23T15:21:12.506Z,8.70
2023-05-23T15:23:39.896Z,5.50
2023-05-23T15:26:07.230Z,6.10
2023-05-23T15:28:34.549Z,5.40
2023-05-23T15:31:01.983Z,6.00
2023-05-23T15:33:29.435Z,7.10
2023-05-23T15:35:58.945Z,4.40
2023-05-23T15:38:26.393Z,8.80
2023-05-23T15:40:55.614Z,7.20
2023-05-23T15:43:24.911Z,6.90
2023-05-23T15:45:52.785Z,4.40
2023-05-23T15:48:21.359Z,9.10
2023-05-23T15:50:48.832Z,5.20
2023-05-23T15:53:16.184Z,8.70
2023-05-23T15:55:43.703Z,8.00
2023-05-23T15:58:11.311Z,7.20
2023-05-23T16:00:38.817Z,5.70
2023-05-23T16:03:06.456Z,4.90
2023-05-23T16:05:33.897Z,5.10
2023-05-23T16:08:01.198Z,9.20
2023-05-23T16:10:28.550Z,5.90
2023-05-23T16:12:55.959Z,8.20
2023-05-23T16:15:23.251Z,8.90
2023-05-23T16:17:50.631Z,6.40
2023-05-23T16:20:18.023Z,8.30
2023-05-23T16:22:46.554Z,5.40
2023-05-23T16:25:13.893Z,7.10
2023-05-23T16:27:41.258Z,10.70
2023-05-23T16:30:09.881Z,9.90
2023-05-23T16:32:37.640Z,8.30
2023-05-23T16:35:05.533Z,5.90
2023-05-23T16:37:33.003Z,6.80
2023-05-23T16:40:00.850Z,7.30
2023-05-23T16:42:28.847Z,6.90
2023-05-23T16:44:59.337Z,7.50
2023-05-23T16:47:26.776Z,8.70
2023-05-23T16:49:54.186Z,11.20
2023-05-23T16:52:22.107Z,6.30
2023-05-23T16:54:49.717Z,6.30
2023-05-23T16:57:17.073Z,8.60
2023-05-23T16:59:44.485Z,6.90
2023-05-23T17:02:14.005Z,10.70
2023-05-23T17:04:41.793Z,6.70
2023-05-23T17:07:09.643Z,7.10
2023-05-23T17:09:37.326Z,7.40
2023-05-23T17:12:05.446Z,6.30
2023-05-23T17:14:33.744Z,7.80
2023-05-23T17:17:03.613Z,6.30
2023-05-23T17:19:31.267Z,5.50
2023-05-23T17:21:59.221Z,8.40
2023-05-23T17:24:26.659Z,7.50
2023-05-23T17:26:54.073Z,7.60
2023-05-23T17:29:22.383Z,11.30
2023-05-23T17:31:50.006Z,13.10
2023-05-23T17:34:18.038Z,12.00
2023-05-23T17:36:45.533Z,10.40
2023-05-23T17:39:14.960Z,8.10
2023-05-23T17:41:42.903Z,8.00
2023-05-23T17:44:19.879Z,7.80
2023-05-23T17:48:09.381Z,8.40
2023-05-23T17:50:38.093Z,11.30
2023-05-23T17:53:05.656Z,9.90
2023-05-23T17:55:33.171Z,8.10
2023-05-23T17:58:01.239Z,8.00
2023-05-23T18:00:28.737Z,9.00
2023-05-23T18:02:57.268Z,5.60
2023-05-23T18:05:24.806Z,10.80
2023-05-23T18:07:54.693Z,9.50
2023-05-23T18:10:22.363Z,10.90
2023-05-23T18:12:51.337Z,11.50
2023-05-23T18:15:18.881Z,9.30
2023-05-23T18:17:46.330Z,9.30
2023-05-23T18:20:13.922Z,15.10
2023-05-23T18:22:41.428Z,9.30
2023-05-23T18:25:09.524Z,9.00
2023-05-23T18:27:36.904Z,9.60
2023-05-23T18:30:04.684Z,11.70
2023-05-23T18:32:32.221Z,10.10
2023-05-23T18:34:59.596Z,10.40
2023-05-23T18:37:27.054Z,13.60
2023-05-23T18:39:58.119Z,12.60
2023-05-23T18:42:25.939Z,10.60
2023-05-23T18:44:53.301Z,9.70
2023-05-23T18:47:20.713Z,8.30
2023-05-23T18:49:49.778Z,8.50
2023-05-23T18:52:17.138Z,6.40
2023-05-23T18:54:44.623Z,7.70
2023-05-23T18:57:12.469Z,9.90
2023-05-23T18:59:39.862Z,10.40
2023-05-23T19:02:07.340Z,9.50
2023-05-23T19:04:34.727Z,10.40
2023-05-23T19:07:02.599Z,10.30
2023-05-23T19:09:29.935Z,12.30
2023-05-23T19:11:57.390Z,11.20
2023-05-23T19:14:24.748Z,19.80
2023-05-23T19:16:52.196Z,16.50
2023-05-23T19:19:20.306Z,13.50
2023-05-23T19:21:47.837Z,15.50
2023-05-23T19:24:16.079Z,15.50
2023-05-23T19:26:43.533Z,14.20
2023-05-23T19:29:11.562Z,13.60
2023-05-23T19:31:41.225Z,13.10
2023-05-23T19:34:08.941Z,12.60
2023-05-23T19:36:37.021Z,14.70
2023-05-23T19:39:05.008Z,15.40
2023-05-23T19:41:35.169Z,13.00
2023-05-23T19:44:03.445Z,10.30
2023-05-23T19:46:32.017Z,13.80
2023-05-23T19:49:01.000Z,10.60
2023-05-23T19:51:28.462Z,11.40
2023-05-23T19:53:56.025Z,11.30
2023-05-23T19:56:25.307Z,12.60
2023-05-23T19:58:52.829Z,11.40
2023-05-23T20:01:20.236Z,12.10
2023-05-23T20:03:47.911Z,12.60
2023-05-23T20:06:16.342Z,18.10
2023-05-23T20:08:44.432Z,12.60
2023-05-23T20:11:12.688Z,11.30
2023-05-23T20:13:40.726Z,13.50
2023-05-23T20:16:08.500Z,16.70
2023-05-23T20:18:36.380Z,17.80
2023-05-23T20:21:05.342Z,17.50
2023-05-23T20:23:33.091Z,10.70
2023-05-23T20:26:01.179Z,11.00
2023-05-23T20:28:29.237Z,17.00
2023-05-23T20:30:56.924Z,12.30
2023-05-23T20:33:25.164Z,14.70
2023-05-23T20:35:54.029Z,12.80
2023-05-23T20:38:21.630Z,12.40
2023-05-23T20:40:52.102Z,17.40
2023-05-23T20:43:20.387Z,12.70
2023-05-23T20:45:48.362Z,17.70
2023-05-23T20:48:16.324Z,15.80
2023-05-23T20:50:44.343Z,15.10
2023-05-23T20:53:11.899Z,18.60
2023-05-23T20:55:39.488Z,15.50
2023-05-23T20:58:07.335Z,14.80
2023-05-23T21:00:34.672Z,16.60
2023-05-23T21:03:02.461Z,18.20
2023-05-23T21:05:29.875Z,15.80
2023-05-23T21:07:57.261Z,14.70
2023-05-23T21:10:24.927Z,16.80
2023-05-23T21:12:52.412Z,15.80
2023-05-23T21:15:19.881Z,15.90
2023-05-23T21:17:47.511Z,13.70
2023-05-23T21:20:16.298Z,16.80
2023-05-23T21:22:44.029Z,16.70
2023-05-23T21:25:11.484Z,14.70
2023-05-23T21:27:38.869Z,18.40
2023-05-23T21:30:07.358Z,15.50
2023-05-23T21:32:34.766Z,15.40
2023-05-23T21:35:02.225Z,20.20
2023-05-23T21:37:32.216Z,16.90
2023-05-23T21:39:59.756Z,20.10
2023-05-23T21:42:27.189Z,14.40
2023-05-23T21:44:54.671Z,14.30
2023-05-23T21:47:24.206Z,14.30
2023-05-23T21:49:51.745Z,13.90
2023-05-23T21:52:19.633Z,19.90
2023-05-23T21:54:48.909Z,17.00
2023-05-23T21:57:16.331Z,15.30
2023-05-23T21:59:43.678Z,19.50
2023-05-23T22:02:11.470Z,15.60
2023-05-23T22:04:38.764Z,15.40
2023-05-23T22:07:06.227Z,16.00
2023-05-23T22:09:33.669Z,13.60
2023-05-23T22:12:01.105Z,16.30
2023-05-23T22:14:28.471Z,14.60
2023-05-23T22:16:56.437Z,14.20
2023-05-23T22:19:26.522Z,15.40
2023-05-23T22:21:53.966Z,12.70
2023-05-23T22:24:21.236Z,11.20
2023-05-23T22:26:48.603Z,13.80
2023-05-23T22:29:16.045Z,14.10
2023-05-23T22:31:43.477Z,10.70
2023-05-23T22:34:11.096Z,11.20
2023-05-23T22:36:39.087Z,11.90
2023-05-23T22:39:06.694Z,11.20
2023-05-23T22:41:34.552Z,9.60
2023-05-23T22:44:02.208Z,11.20
2023-05-23T22:46:29.750Z,14.30
2023-05-23T22:48:58.135Z,11.20
2023-05-23T22:51:25.529Z,11.70
2023-05-23T22:53:53.007Z,8.20
2023-05-23T22:56:20.414Z,16.90
2023-05-23T22:58:47.803Z,14.90
2023-05-23T23:01:15.163Z,14.70
2023-05-23T23:03:42.549Z,10.50
2023-05-23T23:06:10.030Z,10.70
2023-05-23T23:08:37.781Z,13.10
2023-05-23T23:11:05.176Z,11.90
2023-05-23T23:13:32.640Z,13.40
2023-05-23T23:16:00.140Z,13.10
2023-05-23T23:18:27.732Z,9.80
2023-05-23T23:20:55.157Z,9.40
2023-05-23T23:23:22.478Z,12.10
2023-05-23T23:25:52.746Z,10.00
2023-05-23T23:28:20.360Z,11.50
2023-05-23T23:30:48.114Z,8.90
2023-05-23T23:33:16.248Z,10.80
2023-05-23T23:35:46.548Z,8.50
2023-05-23T23:38:14.772Z,14.50
2023-05-23T23:40:44.475Z,12.10
2023-05-23T23:43:12.882Z,11.20
2023-05-23T23:45:40.425Z,14.20
2023-05-23T23:48:07.799Z,10.20
2023-05-23T23:50:35.293Z,10.90
2023-05-23T23:53:02.921Z,13.80
2023-05-23T23:55:30.255Z,11.80
2023-05-23T23:57:57.661Z,12.00
